Íslenskir flugvellir

Veldu flugvelli í þeirri röð sem þeir eiga að birtast og styddu á hnappinn

Uppfært síðast 20.09.2021 - kl. 11:49

SIGMET síðustu 6 klst.

Engin SIGMET skeyti bárust síðustu 6 klst.

Egilsstaðir

METAR síðustu 3 klst

TímiSkeyti
2021-09-20 11.00METAR BIEG 201100Z 18007KT 9999 FEW035 BKN059 11/09 Q0985
2021-09-20 10.00METAR BIEG 201000Z VRB02KT 9999 FEW008 SCT030 BKN100 09/07 Q0985
2021-09-20 09.00METAR BIEG 200900Z VRB02KT 9999 FEW008 SCT029 BKN050 09/07 Q0985 RERA

TAF

TAFBIEG2021-09-20 11.00Z201212VRB02KT 9999 FEW008 SCT030 TX13/2012Z TN05/2105Z BECMG 2012/2014 27012KT -SHRA SCT022 BKN035 TEMPO 2020/2023 29015G25KT BECMG 2023/2101 21006KT BECMG 2107/2109 8000 RADZ OVC022

Allur vindur er réttvísandi bæði í Metar og frá sjálfvirkum veðurstöðvum




Aðrir tengdir vefir



Þetta vefsvæði byggir á Eplica